Time;durP1;ratioP1;P1;durP2;ratioP2;P2;SDS_P1;SDS_P2;PMS_P1;PMS_P2;Temp;Humidity;BMP_temperature;BMP_pressure;BME280_temperature;BME280_humidity;BME280_pressure;Samples;Min_cycle;Max_cycle;Signal;HPM_P1;HPM_P2
2023/02/17 00:00:12;;;;;;;21.00;17.07;;;8.40;99.90;;;;;;5108660;27;20699;-72
2023/02/17 00:02:39;;;;;;;19.53;15.80;;;8.30;99.90;;;;;;5108690;28;20296;-71
2023/02/17 00:05:07;;;;;;;22.13;17.53;;;8.30;99.90;;;;;;5108945;28;20634;-71
2023/02/17 00:07:34;;;;;;;18.93;16.23;;;8.30;99.90;;;;;;5107220;28;20297;-72
2023/02/17 00:10:01;;;;;;;21.37;16.87;;;8.30;99.90;;;;;;5108756;28;20965;-71
2023/02/17 00:12:28;;;;;;;20.93;16.47;;;8.30;99.90;;;;;;5108673;28;20206;-72
2023/02/17 00:14:56;;;;;;;23.63;17.93;;;8.20;99.90;;;;;;5098678;28;20195;-72
2023/02/17 00:17:23;;;;;;;20.80;16.70;;;8.20;99.90;;;;;;5088286;28;20633;-72
2023/02/17 00:19:50;;;;;;;22.47;17.47;;;8.20;99.90;;;;;;5121708;27;20209;-71
2023/02/17 00:22:17;;;;;;;22.47;18.23;;;8.20;99.90;;;;;;5129203;27;20240;-72
2023/02/17 00:24:44;;;;;;;19.60;16.73;;;8.20;99.90;;;;;;5118984;27;20298;-72
2023/02/17 00:27:11;;;;;;;21.20;16.97;;;8.20;99.90;;;;;;5108355;28;20672;-72
2023/02/17 00:29:38;;;;;;;21.53;17.30;;;8.20;99.90;;;;;;5108381;28;20289;-72
2023/02/17 00:32:08;;;;;;;23.17;17.50;;;8.10;99.90;;;;;;5107527;28;20242;-72
2023/02/17 00:34:35;;;;;;;20.77;16.83;;;8.10;99.90;;;;;;5107829;28;20198;-71
2023/02/17 00:37:02;;;;;;;22.83;17.23;;;8.20;99.90;;;;;;5091848;28;20207;-70
2023/02/17 00:39:29;;;;;;;22.07;17.33;;;8.20;99.90;;;;;;5087456;28;20711;-70
2023/02/17 00:41:56;;;;;;;20.73;16.93;;;8.10;99.90;;;;;;5087600;28;20298;-70
2023/02/17 00:44:24;;;;;;;22.20;17.37;;;8.10;99.90;;;;;;5108139;28;20229;-70
2023/02/17 00:46:51;;;;;;;21.07;16.53;;;8.20;99.90;;;;;;5095716;28;20325;-70
2023/02/17 00:49:22;;;;;;;20.27;17.50;;;8.20;99.90;;;;;;5100303;28;20608;-70
2023/02/17 00:51:49;;;;;;;21.77;18.00;;;8.20;99.90;;;;;;5108121;28;20285;-70
2023/02/17 00:54:16;;;;;;;22.40;17.67;;;8.20;99.90;;;;;;5108166;28;20213;-70
2023/02/17 00:56:44;;;;;;;21.10;17.37;;;8.10;99.90;;;;;;5108300;28;20300;-70
2023/02/17 00:59:11;;;;;;;21.03;16.57;;;8.10;99.90;;;;;;5088940;28;20314;-70
2023/02/17 01:01:38;;;;;;;22.90;17.37;;;8.10;99.90;;;;;;5119395;28;20648;-70
2023/02/17 01:04:05;;;;;;;19.80;16.60;;;8.10;99.90;;;;;;5128644;27;20209;-70
2023/02/17 01:06:35;;;;;;;22.30;17.60;;;8.00;99.90;;;;;;5116276;27;20656;-70
2023/02/17 01:09:03;;;;;;;19.80;17.17;;;8.10;99.90;;;;;;5107484;28;20862;-70
2023/02/17 01:11:33;;;;;;;20.63;17.53;;;8.10;99.90;;;;;;5108066;28;20313;-70
2023/02/17 01:14:01;;;;;;;24.23;17.33;;;8.10;99.90;;;;;;5107821;28;20237;-70
2023/02/17 01:16:33;;;;;;;20.70;17.07;;;8.10;99.90;;;;;;5107909;28;20212;-70
2023/02/17 01:19:00;;;;;;;21.40;17.33;;;8.10;99.90;;;;;;5117186;28;20253;-70
2023/02/17 01:21:29;;;;;;;22.50;17.23;;;8.00;99.90;;;;;;5112398;27;20693;-70
2023/02/17 01:23:59;;;;;;;19.17;16.07;;;8.10;99.90;;;;;;5097803;28;20194;-73
2023/02/17 01:26:28;;;;;;;21.97;17.23;;;8.00;99.90;;;;;;5107984;28;20281;-72
2023/02/17 01:28:55;;;;;;;20.47;16.43;;;8.00;99.90;;;;;;5114977;28;20293;-73
2023/02/17 01:31:23;;;;;;;22.00;16.93;;;8.00;99.90;;;;;;5105182;28;20652;-72
2023/02/17 01:33:50;;;;;;;20.87;17.03;;;8.00;99.90;;;;;;5087298;28;20252;-73
2023/02/17 01:36:18;;;;;;;23.23;17.10;;;8.10;99.90;;;;;;5087860;28;20209;-72
2023/02/17 01:38:46;;;;;;;19.90;16.37;;;8.10;99.90;;;;;;5091285;28;20261;-73
2023/02/17 01:41:16;;;;;;;19.67;16.20;;;8.10;99.90;;;;;;5107325;28;20676;-72
2023/02/17 01:44:03;;;;;;;24.00;17.77;;;8.10;99.90;;;;;;5107326;28;20206;-73
2023/02/17 01:46:32;;;;;;;20.17;16.00;;;8.10;99.90;;;;;;5107872;28;20281;-73
2023/02/17 01:49:00;;;;;;;18.40;16.10;;;8.10;99.90;;;;;;5120537;27;20297;-73
2023/02/17 01:51:31;;;;;;;22.50;17.63;;;8.10;99.90;;;;;;5116364;27;20198;-72
2023/02/17 01:54:03;;;;;;;19.03;15.83;;;8.10;99.90;;;;;;5111062;28;20273;-72
2023/02/17 01:56:33;;;;;;;22.77;16.97;;;8.10;99.90;;;;;;5111812;28;20281;-73
2023/02/17 01:59:02;;;;;;;22.40;17.10;;;8.10;99.90;;;;;;5111457;28;20348;-72
2023/02/17 02:01:30;;;;;;;22.50;17.57;;;8.10;99.90;;;;;;5111409;28;20616;-72
2023/02/17 02:04:00;;;;;;;18.83;16.07;;;8.10;99.90;;;;;;5111139;28;20683;-72
2023/02/17 02:06:30;;;;;;;23.53;17.27;;;8.10;99.90;;;;;;5111560;28;20309;-72
2023/02/17 02:09:01;;;;;;;20.60;17.40;;;8.10;99.90;;;;;;5110938;28;20212;-69
2023/02/17 02:11:28;;;;;;;22.03;17.20;;;8.10;99.90;;;;;;5110550;27;20289;-69
2023/02/17 02:13:56;;;;;;;22.87;18.00;;;8.10;99.90;;;;;;5094424;28;20241;-69
2023/02/17 02:16:29;;;;;;;23.13;18.63;;;8.00;99.90;;;;;;5110692;28;20212;-69
2023/02/17 02:19:03;;;;;;;26.30;17.57;;;8.00;99.90;;;;;;5119728;27;20316;-69
2023/02/17 02:21:50;;;;;;;24.93;18.73;;;8.00;99.90;;;;;;5104739;27;20202;-69
2023/02/17 02:24:44;;;;;;;22.90;17.57;;;7.90;99.90;;;;;;5110303;28;20289;-69
2023/02/17 02:27:34;;;;;;;21.50;17.17;;;7.90;99.90;;;;;;5108631;28;20668;-69
2023/02/17 02:30:34;;;;;;;24.80;17.73;;;7.90;99.90;;;;;;5110218;28;20632;-69
2023/02/17 02:33:12;;;;;;;22.60;17.60;;;7.90;99.90;;;;;;5091035;28;20218;-69
2023/02/17 02:35:47;;;;;;;25.60;17.87;;;7.90;99.90;;;;;;5099604;28;20229;-69
2023/02/17 02:38:27;;;;;;;23.77;18.57;;;7.90;99.90;;;;;;5110064;28;20277;-70
2023/02/17 02:41:01;;;;;;;23.97;18.27;;;7.90;99.90;;;;;;5110174;28;20233;-71
2023/02/17 02:43:28;;;;;;;25.50;19.10;;;7.90;99.90;;;;;;5110525;28;20302;-69
2023/02/17 02:45:55;;;;;;;26.20;19.47;;;7.80;99.90;;;;;;5110169;28;20289;-69
2023/02/17 02:48:23;;;;;;;27.20;20.73;;;7.80;99.90;;;;;;5114296;27;20773;-69
2023/02/17 02:51:10;;;;;;;25.87;20.17;;;7.80;99.90;;;;;;5130944;27;20201;-69
2023/02/17 02:54:23;;;;;;;29.10;20.03;;;7.80;99.90;;;;;;5116433;27;20296;-69
2023/02/17 02:57:02;;;;;;;24.90;19.30;;;7.70;99.90;;;;;;5081304;27;20293;-70
2023/02/17 02:59:40;;;;;;;30.57;21.10;;;7.60;99.90;;;;;;5109471;28;20955;-70
2023/02/17 03:02:14;;;;;;;29.27;21.47;;;7.60;99.90;;;;;;5110091;28;20204;-70
2023/02/17 03:04:51;;;;;;;30.30;21.40;;;7.50;99.90;;;;;;5109696;28;20194;-70
2023/02/17 03:07:23;;;;;;;30.77;22.47;;;7.50;99.90;;;;;;5110601;28;20706;-70
2023/02/17 03:09:51;;;;;;;30.17;21.77;;;7.50;99.90;;;;;;5109612;28;20226;-70
2023/02/17 03:12:19;;;;;;;32.40;22.23;;;7.60;99.90;;;;;;5110020;28;20316;-70
2023/02/17 03:14:48;;;;;;;33.07;23.50;;;7.60;99.90;;;;;;5109885;28;20226;-70
2023/02/17 03:17:14;;;;;;;29.47;21.03;;;7.60;99.90;;;;;;5109740;28;20269;-70
2023/02/17 03:19:46;;;;;;;29.30;21.90;;;7.50;99.90;;;;;;5125289;27;20264;-70
2023/02/17 03:22:19;;;;;;;32.27;23.53;;;7.50;99.90;;;;;;5111255;27;20202;-70
2023/02/17 03:24:46;;;;;;;31.63;22.70;;;7.50;99.90;;;;;;5109410;28;20285;-70
2023/02/17 03:27:13;;;;;;;31.23;22.47;;;7.50;99.90;;;;;;5109379;28;20237;-70
2023/02/17 03:29:41;;;;;;;31.07;22.20;;;7.50;99.90;;;;;;5108809;28;20202;-71
2023/02/17 03:32:08;;;;;;;33.47;24.57;;;7.50;99.90;;;;;;5096058;28;20298;-72
2023/02/17 03:34:35;;;;;;;33.93;24.17;;;7.50;99.90;;;;;;5089413;28;20250;-72
2023/02/17 03:37:03;;;;;;;31.90;23.07;;;7.50;99.90;;;;;;5088822;28;20268;-70
2023/02/17 03:39:31;;;;;;;36.10;22.93;;;7.50;99.90;;;;;;5088745;28;20318;-70
2023/02/17 03:41:58;;;;;;;31.10;22.60;;;7.50;99.90;;;;;;5088867;28;20294;-70
2023/02/17 03:44:25;;;;;;;35.50;24.53;;;7.50;99.90;;;;;;5101636;28;20326;-71
2023/02/17 03:47:35;;;;;;;30.17;22.87;;;7.40;99.90;;;;;;5105465;28;20230;-71
2023/02/17 03:50:02;;;;;;;33.63;24.07;;;7.40;99.90;;;;;;5113840;27;20201;-70
2023/02/17 03:52:30;;;;;;;33.87;23.37;;;7.40;99.90;;;;;;5109053;28;20206;-70
2023/02/17 03:55:06;;;;;;;35.50;23.87;;;7.40;99.90;;;;;;5108598;28;20251;-70
2023/02/17 03:57:34;;;;;;;35.53;24.27;;;7.50;99.90;;;;;;5108752;28;20194;-70
2023/02/17 04:00:01;;;;;;;34.70;24.30;;;7.50;99.90;;;;;;5108943;28;20320;-73
2023/02/17 04:02:28;;;;;;;34.43;23.60;;;7.50;99.90;;;;;;5108891;28;20751;-72
2023/02/17 04:04:54;;;;;;;33.10;23.47;;;7.50;99.90;;;;;;5108744;28;20764;-71
2023/02/17 04:07:21;;;;;;;33.17;23.90;;;7.60;99.90;;;;;;5108649;28;20701;-71
2023/02/17 04:09:50;;;;;;;33.77;24.27;;;7.60;99.90;;;;;;5107536;28;20226;-72
2023/02/17 04:12:18;;;;;;;32.90;23.40;;;7.50;99.90;;;;;;5098207;28;20201;-70
2023/02/17 04:14:45;;;;;;;32.43;24.43;;;7.50;99.90;;;;;;5108551;28;20210;-70
2023/02/17 04:17:11;;;;;;;35.60;24.80;;;7.50;99.90;;;;;;5115859;27;20228;-70
2023/02/17 04:19:38;;;;;;;36.70;23.43;;;7.50;99.90;;;;;;5119848;27;20337;-70
2023/02/17 04:22:07;;;;;;;38.77;25.07;;;7.50;99.90;;;;;;5108380;28;20213;-70
2023/02/17 04:24:35;;;;;;;34.03;24.33;;;7.50;99.90;;;;;;5108213;28;20286;-70
2023/02/17 04:27:03;;;;;;;38.50;24.77;;;7.40;99.90;;;;;;5108190;28;20305;-70
2023/02/17 04:29:30;;;;;;;37.33;25.07;;;7.50;99.90;;;;;;5104184;28;20198;-71
2023/02/17 04:31:57;;;;;;;33.33;23.63;;;7.40;99.90;;;;;;5097754;28;20231;-71
2023/02/17 04:34:24;;;;;;;37.77;24.67;;;7.50;99.90;;;;;;5088039;28;20297;-70
2023/02/17 04:36:51;;;;;;;35.40;24.37;;;7.50;99.90;;;;;;5087787;28;20234;-71
2023/02/17 04:39:18;;;;;;;36.90;24.30;;;7.50;99.90;;;;;;5087879;28;20991;-70
2023/02/17 04:41:45;;;;;;;37.33;25.03;;;7.50;99.90;;;;;;5087411;28;20217;-70
2023/02/17 04:44:13;;;;;;;35.60;24.63;;;7.50;99.90;;;;;;5098650;28;20202;-70
2023/02/17 04:46:40;;;;;;;37.93;25.03;;;7.50;99.90;;;;;;5108129;28;20667;-70
2023/02/17 04:49:07;;;;;;;38.13;25.50;;;7.50;99.90;;;;;;5118102;27;20245;-70
2023/02/17 04:51:34;;;;;;;37.90;25.00;;;7.50;99.90;;;;;;5128956;27;20202;-70
2023/02/17 04:54:01;;;;;;;33.77;24.50;;;7.50;99.90;;;;;;5127922;27;20212;-70
2023/02/17 04:56:28;;;;;;;36.57;24.60;;;7.50;99.90;;;;;;5128289;27;20651;-70
2023/02/17 04:58:55;;;;;;;35.20;24.47;;;7.50;99.90;;;;;;5124589;27;20277;-70
2023/02/17 05:01:23;;;;;;;39.67;26.30;;;7.50;99.90;;;;;;5108056;28;20288;-70
2023/02/17 05:03:50;;;;;;;38.83;25.83;;;7.50;99.90;;;;;;5107602;28;20259;-69
2023/02/17 05:06:17;;;;;;;39.17;25.57;;;7.50;99.90;;;;;;5107847;28;20248;-72
2023/02/17 05:08:43;;;;;;;38.57;24.63;;;7.50;99.90;;;;;;5107586;28;20309;-72
2023/02/17 05:11:10;;;;;;;38.17;26.57;;;7.50;99.90;;;;;;5107609;28;20732;-71
2023/02/17 05:13:37;;;;;;;42.23;25.87;;;7.50;99.90;;;;;;5111215;28;20289;-71
2023/02/17 05:16:04;;;;;;;42.27;25.20;;;7.50;99.90;;;;;;5087348;28;20210;-71
2023/02/17 05:18:33;;;;;;;36.80;25.80;;;7.50;99.90;;;;;;5099026;28;20571;-71
2023/02/17 05:20:59;;;;;;;40.03;25.83;;;7.50;99.90;;;;;;5129448;27;20320;-71
2023/02/17 05:23:26;;;;;;;38.73;25.47;;;7.50;99.90;;;;;;5116153;27;20298;-71
2023/02/17 05:25:53;;;;;;;42.57;25.87;;;7.50;99.90;;;;;;5112139;28;20224;-72
2023/02/17 05:28:20;;;;;;;39.97;25.77;;;7.50;99.90;;;;;;5112132;28;20198;-72
2023/02/17 05:30:48;;;;;;;44.83;27.13;;;7.50;99.90;;;;;;5104183;28;20289;-71
2023/02/17 05:33:15;;;;;;;39.13;25.47;;;7.50;99.90;;;;;;5094140;28;20699;-72
2023/02/17 05:35:43;;;;;;;35.63;23.70;;;7.50;99.90;;;;;;5112063;28;20297;-70
2023/02/17 05:38:10;;;;;;;37.37;24.40;;;7.50;99.90;;;;;;5111478;28;20293;-70
2023/02/17 05:40:41;;;;;;;39.67;25.73;;;7.50;99.90;;;;;;5107157;28;20317;-71
2023/02/17 05:43:08;;;;;;;38.87;25.50;;;7.50;99.90;;;;;;5108787;27;20262;-71
2023/02/17 05:45:34;;;;;;;37.77;25.20;;;7.60;99.90;;;;;;5111747;28;20225;-71
2023/02/17 05:48:01;;;;;;;36.70;23.17;;;7.60;99.90;;;;;;5112326;27;20317;-71
2023/02/17 05:50:28;;;;;;;36.73;24.07;;;7.50;99.90;;;;;;5132208;27;20276;-70
2023/02/17 05:52:56;;;;;;;34.37;24.03;;;7.60;99.90;;;;;;5111379;27;20313;-71
2023/02/17 05:55:23;;;;;;;33.43;22.77;;;7.60;99.90;;;;;;5107137;28;20735;-71
2023/02/17 05:57:50;;;;;;;33.23;22.53;;;7.50;99.90;;;;;;5102653;27;20305;-72
2023/02/17 06:00:17;;;;;;;32.17;23.20;;;7.60;99.90;;;;;;5127273;27;20313;-72
2023/02/17 06:02:44;;;;;;;30.07;22.53;;;7.60;99.90;;;;;;5108458;27;20747;-70
2023/02/17 06:05:11;;;;;;;32.70;23.03;;;7.60;99.90;;;;;;5111351;28;20285;-70
2023/02/17 06:07:38;;;;;;;29.33;21.40;;;7.60;99.90;;;;;;5111031;28;20292;-71
2023/02/17 06:10:08;;;;;;;30.07;21.57;;;7.60;99.90;;;;;;5117976;27;20723;-70
2023/02/17 06:12:35;;;;;;;29.67;21.13;;;7.70;99.90;;;;;;5111026;27;20301;-70
2023/02/17 06:15:02;;;;;;;31.93;21.30;;;7.70;99.90;;;;;;5106776;28;20677;-70
2023/02/17 06:17:29;;;;;;;31.40;21.63;;;7.70;99.90;;;;;;5088346;28;20202;-70
2023/02/17 06:19:56;;;;;;;26.57;19.80;;;7.70;99.90;;;;;;5119483;27;20318;-70
2023/02/17 06:22:23;;;;;;;25.70;20.30;;;7.80;99.90;;;;;;5109658;28;20289;-70
2023/02/17 06:24:50;;;;;;;23.93;19.03;;;7.80;99.90;;;;;;5109104;28;20297;-70
2023/02/17 06:27:18;;;;;;;24.73;19.70;;;7.80;99.90;;;;;;5108756;27;20226;-70
2023/02/17 06:29:45;;;;;;;26.67;19.67;;;7.80;99.90;;;;;;5108159;28;20301;-70
2023/02/17 06:32:12;;;;;;;26.97;18.80;;;7.80;99.90;;;;;;5089982;28;20198;-70
2023/02/17 06:34:39;;;;;;;23.93;18.83;;;7.80;99.90;;;;;;5087992;28;20297;-70
2023/02/17 06:37:06;;;;;;;24.90;19.37;;;7.80;99.90;;;;;;5089326;28;20298;-70
2023/02/17 06:39:33;;;;;;;24.30;18.73;;;7.80;99.90;;;;;;5094913;28;20308;-71
2023/02/17 06:42:00;;;;;;;23.63;18.17;;;7.90;99.90;;;;;;5110475;28;20206;-70
2023/02/17 06:44:28;;;;;;;22.00;18.07;;;7.90;99.90;;;;;;5110376;28;20569;-70
2023/02/17 06:46:55;;;;;;;24.70;18.57;;;7.90;99.90;;;;;;5110498;28;20242;-71
2023/02/17 06:49:22;;;;;;;25.90;18.60;;;7.90;99.90;;;;;;5110081;28;20236;-71
2023/02/17 06:51:49;;;;;;;23.13;17.47;;;7.90;99.90;;;;;;5109946;28;20297;-70
2023/02/17 06:54:16;;;;;;;22.90;17.37;;;7.90;99.90;;;;;;5110113;28;20241;-74
2023/02/17 06:56:43;;;;;;;21.20;17.33;;;8.00;99.90;;;;;;5105069;28;20202;-71
2023/02/17 06:59:09;;;;;;;20.60;16.97;;;8.00;99.90;;;;;;5090031;28;20206;-70
2023/02/17 07:01:39;;;;;;;22.07;17.80;;;8.00;99.90;;;;;;5096793;28;20320;-70
2023/02/17 07:04:06;;;;;;;21.20;16.83;;;8.00;99.90;;;;;;5089550;28;20207;-71
2023/02/17 07:06:33;;;;;;;19.33;17.10;;;8.00;99.90;;;;;;5109743;28;20266;-71
2023/02/17 07:09:01;;;;;;;19.07;15.50;;;8.00;99.90;;;;;;5109323;28;20309;-70
2023/02/17 07:11:30;;;;;;;20.70;15.83;;;8.00;99.90;;;;;;5088375;28;20292;-70
2023/02/17 07:13:57;;;;;;;19.93;16.63;;;8.00;99.90;;;;;;5087246;28;20203;-70
2023/02/17 07:16:24;;;;;;;18.73;15.50;;;8.10;99.90;;;;;;5098146;27;20228;-70
2023/02/17 07:18:52;;;;;;;20.20;16.13;;;8.10;99.90;;;;;;5128351;27;20224;-71
2023/02/17 07:21:19;;;;;;;19.57;16.43;;;8.10;99.90;;;;;;5129109;27;20319;-70
2023/02/17 07:23:47;;;;;;;19.17;15.00;;;8.10;99.90;;;;;;5113602;27;20297;-70
2023/02/17 07:26:14;;;;;;;18.23;16.17;;;8.20;99.90;;;;;;5107204;28;20202;-70
2023/02/17 07:28:41;;;;;;;17.03;15.13;;;8.20;99.90;;;;;;5107510;28;20274;-70
2023/02/17 07:31:09;;;;;;;19.10;15.50;;;8.20;99.90;;;;;;5097735;28;20632;-70
2023/02/17 07:33:36;;;;;;;19.53;15.23;;;8.30;99.90;;;;;;5107159;28;20751;-69
2023/02/17 07:36:07;;;;;;;18.67;15.13;;;8.30;99.90;;;;;;5109042;28;20620;-70
2023/02/17 07:38:35;;;;;;;18.00;14.80;;;8.30;99.90;;;;;;5108969;28;20285;-70
2023/02/17 07:41:05;;;;;;;17.03;15.20;;;8.30;99.90;;;;;;5107370;28;20796;-70
2023/02/17 07:43:32;;;;;;;17.33;13.87;;;8.30;99.90;;;;;;5107984;28;20201;-70
2023/02/17 07:45:59;;;;;;;16.30;14.13;;;8.40;99.90;;;;;;5107578;28;20297;-70
2023/02/17 07:48:25;;;;;;;17.37;14.87;;;8.40;99.90;;;;;;5112118;27;20954;-70
2023/02/17 07:50:52;;;;;;;17.10;14.07;;;8.40;99.90;;;;;;5128110;27;20659;-70
2023/02/17 07:53:21;;;;;;;14.77;13.23;;;8.40;99.90;;;;;;5128140;27;20288;-70
2023/02/17 07:55:47;;;;;;;18.27;14.33;;;8.50;99.90;;;;;;5128440;27;20300;-70
2023/02/17 07:58:14;;;;;;;15.87;13.63;;;8.50;99.90;;;;;;5108608;28;20202;-70
2023/02/17 08:00:41;;;;;;;14.70;13.20;;;8.50;99.90;;;;;;5108702;27;20718;-70
2023/02/17 08:03:09;;;;;;;16.03;13.37;;;8.50;99.90;;;;;;5108600;28;20277;-70
2023/02/17 08:05:39;;;;;;;15.83;13.27;;;8.60;99.90;;;;;;5108770;28;20194;-70
2023/02/17 08:13:42;;;;;;;15.00;13.40;;;8.60;99.90;;;;;;5067587;28;20261;-69
2023/02/17 08:16:09;;;;;;;14.13;12.63;;;8.70;99.90;;;;;;5093504;28;20214;-70
2023/02/17 08:18:35;;;;;;;13.63;12.20;;;8.60;99.90;;;;;;5107026;28;20326;-70
2023/02/17 08:21:02;;;;;;;14.50;12.90;;;8.70;99.90;;;;;;5108385;28;20368;-70
2023/02/17 08:23:29;;;;;;;14.23;12.77;;;8.70;99.90;;;;;;5105551;28;20317;-70
2023/02/17 08:25:58;;;;;;;15.27;12.80;;;8.70;99.90;;;;;;5088927;28;20207;-70
2023/02/17 08:28:25;;;;;;;13.33;11.93;;;8.70;99.90;;;;;;5088108;28;20241;-70
2023/02/17 08:30:52;;;;;;;13.87;12.47;;;8.70;99.90;;;;;;5095815;28;20289;-70
2023/02/17 08:33:20;;;;;;;13.73;12.10;;;8.70;99.90;;;;;;5093452;28;20321;-70
2023/02/17 08:35:47;;;;;;;16.40;12.97;;;8.70;99.90;;;;;;5088133;28;20207;-70
2023/02/17 08:38:14;;;;;;;13.97;12.57;;;8.80;99.90;;;;;;5095771;28;20202;-70
2023/02/17 08:40:41;;;;;;;15.80;12.63;;;8.70;99.90;;;;;;5089158;28;20309;-70
2023/02/17 08:43:09;;;;;;;14.70;13.13;;;8.70;99.90;;;;;;5100272;28;20292;-70
2023/02/17 08:45:37;;;;;;;14.93;12.90;;;8.80;99.90;;;;;;5092016;28;20294;-70
2023/02/17 08:48:04;;;;;;;14.40;12.50;;;8.70;99.90;;;;;;5090471;27;20707;-70
2023/02/17 08:50:32;;;;;;;16.87;13.23;;;8.80;99.90;;;;;;5092856;27;20278;-70
2023/02/17 08:52:59;;;;;;;14.63;12.73;;;8.80;99.90;;;;;;5087362;28;20206;-70
2023/02/17 08:55:26;;;;;;;14.73;13.17;;;8.80;99.90;;;;;;5087140;28;20202;-70
2023/02/17 08:57:53;;;;;;;14.93;13.37;;;8.80;99.90;;;;;;5106088;27;20293;-70
2023/02/17 09:00:22;;;;;;;15.13;12.77;;;8.80;99.90;;;;;;5105655;28;20198;-70
2023/02/17 09:02:49;;;;;;;15.33;13.73;;;8.70;99.90;;;;;;5107616;28;20289;-70
2023/02/17 09:05:16;;;;;;;15.97;13.30;;;8.70;99.90;;;;;;5108002;28;20293;-70
2023/02/17 09:07:43;;;;;;;14.90;13.27;;;8.80;99.90;;;;;;5107773;28;20341;-70
2023/02/17 09:10:13;;;;;;;15.93;14.13;;;8.80;99.90;;;;;;5107870;28;20225;-70
2023/02/17 09:12:41;;;;;;;16.07;13.67;;;8.70;99.90;;;;;;5107688;28;20670;-70
2023/02/17 09:15:09;;;;;;;17.77;14.13;;;8.70;99.90;;;;;;5107487;28;20677;-70
2023/02/17 09:17:40;;;;;;;16.60;13.90;;;8.70;99.90;;;;;;5107501;28;20731;-70
2023/02/17 09:20:08;;;;;;;15.50;13.90;;;8.70;99.90;;;;;;5125987;28;20202;-70
2023/02/17 09:22:35;;;;;;;15.23;13.10;;;8.70;99.90;;;;;;5118857;27;20266;-71
2023/02/17 09:25:02;;;;;;;15.17;13.57;;;8.70;99.90;;;;;;5107291;28;20202;-70
2023/02/17 09:27:29;;;;;;;17.27;14.00;;;8.70;99.90;;;;;;5107627;28;20743;-69
2023/02/17 09:29:56;;;;;;;16.73;14.93;;;8.70;99.90;;;;;;5105950;28;21144;-69
2023/02/17 09:32:23;;;;;;;15.93;14.00;;;8.70;99.90;;;;;;5105298;28;20751;-69
2023/02/17 09:34:52;;;;;;;16.80;15.00;;;8.70;99.90;;;;;;5107445;28;20201;-70
2023/02/17 09:37:20;;;;;;;17.53;15.40;;;8.70;99.90;;;;;;5107536;28;20198;-70
2023/02/17 09:39:48;;;;;;;17.83;15.20;;;8.70;99.90;;;;;;5107143;28;20198;-69
2023/02/17 09:42:20;;;;;;;18.20;15.37;;;8.70;99.90;;;;;;5107566;28;20325;-69
2023/02/17 09:44:50;;;;;;;16.73;14.93;;;8.80;99.90;;;;;;5107536;28;20281;-69
2023/02/17 09:47:21;;;;;;;18.30;16.23;;;8.80;99.90;;;;;;5107984;28;20190;-70
2023/02/17 09:49:51;;;;;;;18.40;14.80;;;8.80;99.90;;;;;;5108308;28;20265;-69
2023/02/17 09:52:26;;;;;;;19.93;15.97;;;8.80;99.90;;;;;;5107534;28;20198;-69
2023/02/17 09:55:02;;;;;;;18.30;15.43;;;8.80;99.90;;;;;;5104016;28;20240;-69
2023/02/17 09:57:35;;;;;;;20.13;16.17;;;8.80;99.90;;;;;;5088899;28;20547;-70
2023/02/17 10:00:08;;;;;;;18.20;15.60;;;8.90;99.90;;;;;;5103503;28;20621;-69
2023/02/17 10:02:46;;;;;;;19.20;15.30;;;8.90;99.90;;;;;;5107297;28;20218;-70
2023/02/17 10:05:21;;;;;;;16.43;14.30;;;8.90;99.90;;;;;;5107318;28;20199;-69
2023/02/17 10:07:53;;;;;;;16.93;15.13;;;8.90;99.90;;;;;;5107799;28;20363;-69
2023/02/17 10:10:22;;;;;;;16.90;14.90;;;8.90;99.90;;;;;;5111036;28;20316;-70
2023/02/17 10:12:53;;;;;;;16.60;14.87;;;8.90;99.90;;;;;;5110955;28;20641;-70
2023/02/17 10:15:24;;;;;;;18.47;15.80;;;9.00;99.90;;;;;;5110823;28;20239;-69
2023/02/17 10:17:57;;;;;;;17.70;15.57;;;9.00;99.90;;;;;;5110813;28;20257;-69
2023/02/17 10:20:28;;;;;;;19.87;16.80;;;9.00;99.90;;;;;;5090996;28;20244;-69
2023/02/17 10:23:03;;;;;;;20.13;17.27;;;9.00;99.90;;;;;;5101019;28;20284;-70
2023/02/17 10:25:45;;;;;;;17.20;15.37;;;9.00;99.90;;;;;;5110500;27;20201;-70
2023/02/17 10:28:21;;;;;;;20.70;17.10;;;9.00;99.90;;;;;;5111142;27;20281;-70
2023/02/17 10:30:54;;;;;;;21.20;17.23;;;9.00;99.90;;;;;;5110305;28;20306;-70
2023/02/17 10:33:28;;;;;;;21.80;17.00;;;9.10;99.90;;;;;;5110824;28;20275;-70
2023/02/17 10:36:05;;;;;;;19.13;16.20;;;9.10;99.90;;;;;;5110884;28;20277;-70
2023/02/17 10:38:48;;;;;;;19.97;16.70;;;9.10;99.90;;;;;;5110509;28;20186;-70
2023/02/17 10:41:21;;;;;;;21.30;17.03;;;9.10;99.90;;;;;;5110582;28;20222;-70
2023/02/17 10:43:48;;;;;;;22.23;16.73;;;9.20;99.90;;;;;;5110164;28;20297;-70
2023/02/17 10:46:18;;;;;;;19.60;15.90;;;9.20;99.90;;;;;;5109901;28;20241;-70
2023/02/17 10:48:48;;;;;;;19.33;16.27;;;9.20;99.90;;;;;;5117179;27;20687;-70
2023/02/17 10:51:18;;;;;;;18.57;16.03;;;9.20;99.90;;;;;;5120121;27;20220;-70
2023/02/17 10:53:51;;;;;;;20.47;16.43;;;9.30;99.90;;;;;;5110094;28;20206;-71
2023/02/17 10:56:21;;;;;;;19.67;16.57;;;9.30;99.90;;;;;;5110456;28;20297;-70
2023/02/17 10:58:53;;;;;;;19.27;16.47;;;9.40;99.90;;;;;;5109931;28;20759;-69
2023/02/17 11:01:22;;;;;;;18.60;15.93;;;9.40;99.90;;;;;;5110229;28;20210;-69
2023/02/17 11:04:00;;;;;;;17.50;15.60;;;9.40;99.90;;;;;;5109607;28;20218;-70
2023/02/17 11:06:29;;;;;;;18.10;15.33;;;9.40;99.90;;;;;;5109970;28;20680;-69
2023/02/17 11:09:01;;;;;;;17.63;15.70;;;9.40;99.90;;;;;;5109860;28;20676;-70
2023/02/17 11:11:30;;;;;;;17.93;15.07;;;9.40;99.90;;;;;;5093346;28;20285;-70
2023/02/17 11:14:04;;;;;;;18.00;15.20;;;9.50;99.90;;;;;;5089395;28;20202;-70
2023/02/17 11:16:36;;;;;;;16.87;14.70;;;9.50;99.90;;;;;;5094116;28;20282;-69
2023/02/17 11:19:04;;;;;;;18.13;14.17;;;9.50;99.90;;;;;;5108264;27;20205;-69
2023/02/17 11:21:32;;;;;;;19.30;15.23;;;9.50;99.90;;;;;;5130259;27;20316;-70
2023/02/17 11:24:02;;;;;;;16.87;15.07;;;9.50;99.90;;;;;;5129606;27;20801;-70
2023/02/17 11:26:31;;;;;;;15.53;13.93;;;9.50;99.90;;;;;;5126390;27;20233;-70
2023/02/17 11:29:08;;;;;;;15.97;14.30;;;9.60;99.90;;;;;;5109184;28;20293;-70
2023/02/17 11:31:35;;;;;;;16.10;13.73;;;9.60;99.90;;;;;;5094967;28;20315;-70
2023/02/17 11:34:12;;;;;;;15.43;13.70;;;9.60;99.90;;;;;;5095195;28;20233;-70
2023/02/17 11:36:39;;;;;;;16.23;14.63;;;9.70;99.90;;;;;;5109710;28;20221;-70
2023/02/17 11:39:18;;;;;;;16.03;12.93;;;9.70;99.90;;;;;;5109008;28;20206;-69
2023/02/17 11:41:45;;;;;;;14.97;13.37;;;9.70;99.90;;;;;;5108912;27;20218;-69
2023/02/17 11:44:12;;;;;;;14.77;13.27;;;9.80;99.90;;;;;;5109142;27;20205;-70
2023/02/17 11:46:44;;;;;;;13.57;12.17;;;9.80;99.90;;;;;;5116828;27;20352;-70
2023/02/17 11:49:41;;;;;;;13.57;12.27;;;9.90;99.90;;;;;;5120084;27;20670;-70
2023/02/17 11:52:23;;;;;;;13.63;12.33;;;9.90;99.90;;;;;;5108151;28;20663;-71
2023/02/17 11:55:16;;;;;;;14.90;12.10;;;9.90;99.90;;;;;;5108627;28;20293;-71
2023/02/17 11:57:50;;;;;;;13.27;11.97;;;9.90;99.90;;;;;;5106964;28;20289;-71
2023/02/17 12:00:21;;;;;;;13.27;11.97;;;9.90;99.90;;;;;;5090479;28;20241;-71
2023/02/17 12:03:16;;;;;;;14.50;11.50;;;9.90;99.90;;;;;;5088687;28;20218;-71
2023/02/17 12:05:55;;;;;;;12.40;11.10;;;10.00;99.90;;;;;;5069088;28;20294;-72
2023/02/17 12:08:28;;;;;;;11.93;10.50;;;10.00;99.90;;;;;;5088106;28;20237;-70
2023/02/17 12:11:05;;;;;;;11.70;10.50;;;10.10;99.90;;;;;;5088055;28;20187;-70
2023/02/17 12:13:42;;;;;;;11.13;10.00;;;10.20;99.90;;;;;;5088473;28;20281;-70
2023/02/17 12:16:24;;;;;;;10.73;9.77;;;10.20;99.90;;;;;;5101696;28;20247;-70
2023/02/17 12:19:01;;;;;;;11.03;9.57;;;10.50;99.90;;;;;;5109639;27;20292;-70
2023/02/17 12:21:47;;;;;;;9.60;8.70;;;10.50;99.90;;;;;;5098444;27;20303;-70
2023/02/17 12:24:28;;;;;;;9.80;8.80;;;10.60;99.90;;;;;;5097766;28;20226;-70
2023/02/17 12:27:04;;;;;;;9.33;8.43;;;10.60;99.90;;;;;;5087927;28;20241;-70
2023/02/17 12:29:49;;;;;;;8.80;8.00;;;10.70;99.90;;;;;;5088004;28;20194;-70
2023/02/17 12:32:33;;;;;;;8.37;7.60;;;10.70;99.90;;;;;;5107748;28;20198;-70
2023/02/17 12:35:12;;;;;;;8.20;7.50;;;10.70;99.90;;;;;;5108146;28;20598;-71
2023/02/17 12:37:49;;;;;;;8.53;7.30;;;10.80;99.90;;;;;;5107896;28;20288;-70
2023/02/17 12:40:28;;;;;;;7.57;6.90;;;11.00;99.90;;;;;;5108304;27;20186;-71
2023/02/17 12:43:00;;;;;;;7.53;6.83;;;11.00;99.90;;;;;;5107660;28;20679;-71
2023/02/17 12:45:34;;;;;;;6.77;6.27;;;11.10;99.90;;;;;;5108120;28;20290;-70
2023/02/17 12:48:06;;;;;;;7.27;6.67;;;11.10;99.90;;;;;;5109026;28;20279;-70
2023/02/17 12:50:37;;;;;;;7.27;6.67;;;11.10;99.90;;;;;;5123027;27;20229;-71
2023/02/17 12:53:11;;;;;;;6.70;6.10;;;11.20;99.90;;;;;;5107610;28;20670;-70
2023/02/17 12:55:47;;;;;;;6.57;5.97;;;11.20;99.90;;;;;;5108020;28;20281;-70
2023/02/17 12:58:18;;;;;;;6.67;6.17;;;11.30;99.90;;;;;;5108336;28;20613;-71